createdAt,value
2017-05-12T00:00:32.738Z,58.03
2017-05-12T00:01:13.269Z,58.03
2017-05-12T00:01:53.798Z,57.55
2017-05-12T00:02:34.332Z,57.93
2017-05-12T00:03:14.871Z,58.03
2017-05-12T00:03:55.402Z,57.65
2017-05-12T00:04:35.935Z,57.07
2017-05-12T00:05:16.473Z,57.36
2017-05-12T00:05:57.008Z,57.26
2017-05-12T00:06:37.540Z,56.88
2017-05-12T00:07:18.106Z,56.98
2017-05-12T00:07:58.727Z,57.07
2017-05-12T00:08:39.268Z,56.98
2017-05-12T00:09:19.800Z,56.79
2017-05-12T00:10:00.341Z,56.79
2017-05-12T00:10:40.886Z,56.5
2017-05-12T00:11:21.426Z,56.79
2017-05-12T00:12:01.965Z,56.69
2017-05-12T00:12:42.495Z,56.5
2017-05-12T00:13:23.037Z,56.02
2017-05-12T00:14:03.573Z,56.69
2017-05-12T00:14:44.112Z,56.31
2017-05-12T00:15:24.652Z,56.02
2017-05-12T00:16:05.190Z,55.93
2017-05-12T00:16:45.726Z,56.12
2017-05-12T00:17:26.261Z,55.35
2017-05-12T00:18:06.798Z,56.12
2017-05-12T00:18:47.328Z,55.64
2017-05-12T00:19:27.867Z,55.07
2017-05-12T00:20:08.410Z,55.07
2017-05-12T00:20:48.949Z,55.16
2017-05-12T00:21:29.484Z,54.97
2017-05-12T00:22:10.023Z,54.88
2017-05-12T00:22:50.554Z,55.16
2017-05-12T00:23:31.086Z,54.97
2017-05-12T00:24:11.617Z,55.07
2017-05-12T00:24:52.155Z,55.45
2017-05-12T00:25:32.702Z,55.16
2017-05-12T00:26:13.238Z,55.16
2017-05-12T00:26:53.766Z,55.16
2017-05-12T00:27:34.304Z,55.07
2017-05-12T00:28:14.835Z,55.07
2017-05-12T00:28:55.366Z,54.97
2017-05-12T00:29:35.909Z,54.88
2017-05-12T00:30:16.444Z,55.16
2017-05-12T00:30:56.991Z,55.26
2017-05-12T00:31:37.531Z,54.97
2017-05-12T00:32:18.067Z,55.07
2017-05-12T00:32:58.604Z,55.07
2017-05-12T00:33:39.141Z,54.78
2017-05-12T00:34:19.679Z,54.78
2017-05-12T00:35:00.218Z,54.59
2017-05-12T00:35:40.759Z,54.88
2017-05-12T00:36:21.300Z,54.59
2017-05-12T00:37:01.821Z,54.88
2017-05-12T00:37:42.355Z,54.88
2017-05-12T00:38:22.886Z,54.97
2017-05-12T00:39:03.424Z,54.3
2017-05-12T00:39:43.961Z,54.11
2017-05-12T00:40:24.500Z,54.3
2017-05-12T00:41:05.038Z,54.39
2017-05-12T00:41:45.569Z,54.59
2017-05-12T00:42:26.104Z,54.3
2017-05-12T00:43:06.633Z,54.21
2017-05-12T00:43:47.175Z,53.92
2017-05-12T00:44:27.717Z,53.82
2017-05-12T00:45:08.254Z,53.63
2017-05-12T00:45:48.778Z,53.06
2017-05-12T00:46:29.357Z,53.16
2017-05-12T00:47:09.900Z,53.44
2017-05-12T00:47:50.426Z,53.34
2017-05-12T00:48:30.971Z,53.34
2017-05-12T00:49:11.503Z,52.87
2017-05-12T00:49:52.038Z,52.87
2017-05-12T00:50:32.576Z,52.94
2017-05-12T00:51:13.110Z,53.06
2017-05-12T00:51:53.648Z,52.39
2017-05-12T00:52:34.178Z,52.2
2017-05-12T00:53:14.723Z,52.48
2017-05-12T00:53:55.257Z,52.48
2017-05-12T00:54:35.799Z,52.39
2017-05-12T00:55:16.336Z,52.2
2017-05-12T00:55:56.872Z,51.7
2017-05-12T00:56:37.397Z,51.81
2017-05-12T00:57:17.942Z,51.34
2017-05-12T00:57:58.472Z,51.53
2017-05-12T00:58:39.004Z,51.43
2017-05-12T00:59:19.539Z,51.41
2017-05-12T01:00:00.085Z,51.34
2017-05-12T01:00:40.664Z,50.86
2017-05-12T01:01:21.207Z,51.15
2017-05-12T01:02:01.745Z,50.84
2017-05-12T01:02:42.285Z,50.76
2017-05-12T01:03:22.822Z,51.21
2017-05-12T01:04:03.372Z,50.45
2017-05-12T01:04:43.911Z,50.55
2017-05-12T01:05:24.449Z,50.74
2017-05-12T01:06:04.986Z,50.64
2017-05-12T01:06:45.524Z,50.48
2017-05-12T01:07:26.057Z,50.16
2017-05-12T01:08:06.592Z,50.16
2017-05-12T01:08:47.126Z,49.69
2017-05-12T01:09:27.662Z,49.71
2017-05-12T01:10:08.202Z,49.98
2017-05-12T01:10:48.736Z,49.62
2017-05-12T01:11:29.263Z,50
2017-05-12T01:12:09.802Z,49.71
2017-05-12T01:12:50.337Z,49.71
2017-05-12T01:13:30.868Z,49.21
2017-05-12T01:14:11.397Z,49.8
2017-05-12T01:14:51.947Z,49.21
2017-05-12T01:15:32.483Z,49.3
2017-05-12T01:16:13.018Z,49.3
2017-05-12T01:16:53.551Z,49.23
2017-05-12T01:17:34.092Z,49.43
2017-05-12T01:18:14.637Z,49.62
2017-05-12T01:18:55.166Z,49.3
2017-05-12T01:19:35.704Z,49.49
2017-05-12T01:20:16.236Z,49.11
2017-05-12T01:20:56.773Z,48.95
2017-05-12T01:21:37.350Z,49.33
2017-05-12T01:22:17.852Z,49.04
2017-05-12T01:22:58.400Z,49.3
2017-05-12T01:23:38.949Z,49.52
2017-05-12T01:24:19.485Z,49.52
2017-05-12T01:25:00.077Z,49.62
2017-05-12T01:25:40.580Z,49.04
2017-05-12T01:26:21.113Z,49.14
2017-05-12T01:27:01.654Z,49.49
2017-05-12T01:27:42.247Z,49.23
2017-05-12T01:28:22.727Z,49.52
2017-05-12T01:29:03.268Z,49.88
2017-05-12T01:29:43.808Z,49.71
2017-05-12T01:30:24.346Z,49.43
2017-05-12T01:31:04.864Z,49.33
2017-05-12T01:31:45.405Z,49.33
2017-05-12T01:32:25.941Z,49.33
2017-05-12T01:33:06.468Z,49.78
2017-05-12T01:33:47.007Z,49.52
2017-05-12T01:34:27.552Z,49.3
2017-05-12T01:35:08.079Z,49.33
2017-05-12T01:35:48.616Z,49.21
2017-05-12T01:36:29.144Z,49.78
2017-05-12T01:37:09.682Z,49.3
2017-05-12T01:37:50.212Z,49.3
2017-05-12T01:38:30.759Z,49.52
2017-05-12T01:39:11.300Z,49.33
2017-05-12T01:39:51.848Z,49.21
2017-05-12T01:40:32.383Z,49.3
2017-05-12T01:41:12.910Z,49.3
2017-05-12T01:41:53.449Z,49.14
2017-05-12T01:42:33.991Z,49.21
2017-05-12T01:43:14.558Z,49.3
2017-05-12T01:43:55.069Z,49.04
2017-05-12T01:44:35.607Z,49.3
2017-05-12T01:45:16.149Z,49.59
2017-05-12T01:45:56.677Z,49.88
2017-05-12T01:46:37.205Z,49.8
2017-05-12T01:47:17.745Z,49.78
2017-05-12T01:47:58.286Z,49.88
2017-05-12T01:48:41.618Z,49.71
2017-05-12T01:49:22.189Z,49.8
2017-05-12T01:50:02.761Z,49.59
2017-05-12T01:50:43.331Z,50.38
2017-05-12T01:51:23.906Z,50.67
2017-05-12T01:52:04.480Z,50.55
2017-05-12T01:52:45.049Z,50.64
2017-05-12T01:53:25.627Z,50.38
2017-05-12T01:54:06.200Z,50.35
2017-05-12T01:54:46.768Z,50.76
2017-05-12T01:55:27.344Z,50.48
2017-05-12T01:56:07.912Z,51.24
2017-05-12T01:56:48.481Z,51.05
2017-05-12T01:57:29.052Z,51.12
2017-05-12T01:58:09.628Z,51.5
2017-05-12T01:58:50.200Z,51.79
2017-05-12T01:59:30.773Z,51.34
2017-05-12T02:00:11.348Z,51.43
2017-05-12T02:00:51.921Z,52.08
2017-05-12T02:01:32.503Z,51.81
2017-05-12T02:02:13.077Z,52.08
2017-05-12T02:02:53.659Z,52.08
2017-05-12T02:03:34.235Z,52.39
2017-05-12T02:04:14.812Z,52.26
2017-05-12T02:04:55.401Z,52.65
2017-05-12T02:05:35.975Z,52.77
2017-05-12T02:06:16.573Z,52.84
2017-05-12T02:06:57.181Z,52.46
2017-05-12T02:07:37.760Z,52.67
2017-05-12T02:08:18.338Z,53.22
2017-05-12T02:08:58.911Z,53.16
2017-05-12T02:09:39.528Z,53.22
2017-05-12T02:10:20.102Z,52.96
2017-05-12T02:11:00.685Z,52.67
2017-05-12T02:11:41.277Z,52.96
2017-05-12T02:12:21.844Z,53.34
2017-05-12T02:13:02.420Z,53.41
2017-05-12T02:13:42.987Z,53.63
2017-05-12T02:14:23.588Z,53.73
2017-05-12T02:15:04.155Z,53.8
2017-05-12T02:15:44.732Z,54.27
2017-05-12T02:16:25.308Z,53.73
2017-05-12T02:17:05.884Z,54.37
2017-05-12T02:17:46.453Z,54.37
2017-05-12T02:18:27.031Z,54.18
2017-05-12T02:19:07.602Z,54.49
2017-05-12T02:19:48.177Z,54.37
2017-05-12T02:20:28.765Z,54.47
2017-05-12T02:21:09.353Z,54.94
2017-05-12T02:21:49.946Z,54.75
2017-05-12T02:22:30.526Z,54.78
2017-05-12T02:23:11.095Z,54.85
2017-05-12T02:23:51.661Z,54.66
2017-05-12T02:24:32.240Z,54.88
2017-05-12T02:25:12.823Z,54.59
2017-05-12T02:25:53.411Z,54.27
2017-05-12T02:26:33.984Z,54.02
2017-05-12T02:27:14.573Z,54.11
2017-05-12T02:27:55.155Z,54.27
2017-05-12T02:28:35.748Z,53.8
2017-05-12T02:29:16.325Z,53.61
2017-05-12T02:29:56.888Z,53.61
2017-05-12T02:30:37.488Z,53.13
2017-05-12T02:31:18.086Z,52.94
2017-05-12T02:31:58.675Z,52.46
2017-05-12T02:32:39.244Z,52.55
2017-05-12T02:33:19.816Z,52.46
2017-05-12T02:34:00.395Z,52.46
2017-05-12T02:34:40.965Z,52.17
2017-05-12T02:35:21.567Z,52.26
2017-05-12T02:36:02.143Z,51.79
2017-05-12T02:36:42.706Z,51.41
2017-05-12T02:37:23.276Z,51.31
2017-05-12T02:38:03.863Z,51.21
2017-05-12T02:38:44.442Z,51.31
2017-05-12T02:39:25.031Z,50.84
2017-05-12T02:40:05.618Z,50.74
2017-05-12T02:40:46.199Z,50.45
2017-05-12T02:41:26.767Z,50.64
2017-05-12T02:42:07.360Z,50.55
2017-05-12T02:42:47.933Z,50.55
2017-05-12T02:43:28.508Z,50.35
2017-05-12T02:44:09.070Z,50.55
2017-05-12T02:44:49.649Z,50.26
2017-05-12T02:45:30.221Z,50.26
2017-05-12T02:46:10.806Z,50.07
2017-05-12T02:46:51.398Z,50.16
2017-05-12T02:47:31.966Z,50.16
2017-05-12T02:48:12.568Z,50.07
2017-05-12T02:48:53.132Z,50.26
2017-05-12T02:49:33.731Z,50.07
2017-05-12T02:50:14.307Z,49.98
2017-05-12T02:50:54.890Z,49.88
2017-05-12T02:51:35.478Z,49.78
2017-05-12T02:52:16.043Z,49.69
2017-05-12T02:52:56.663Z,49.59
2017-05-12T02:53:37.206Z,49.21
2017-05-12T02:54:17.782Z,49.3
2017-05-12T02:54:58.350Z,49.21
2017-05-12T02:55:38.934Z,49.02
2017-05-12T02:56:19.499Z,49.02
2017-05-12T02:57:00.072Z,48.93
2017-05-12T02:57:40.655Z,48.73
2017-05-12T02:58:21.228Z,48.93
2017-05-12T02:59:01.838Z,48.54
2017-05-12T02:59:42.378Z,48.44
2017-05-12T03:00:22.945Z,48.73
2017-05-12T03:01:03.518Z,48.35
2017-05-12T03:01:44.094Z,47.97
2017-05-12T03:02:24.665Z,48.16
2017-05-12T03:03:05.233Z,47.87
2017-05-12T03:03:45.802Z,47.3
2017-05-12T03:04:26.372Z,47.68
2017-05-12T03:05:06.950Z,47.01
2017-05-12T03:05:47.510Z,46.92
2017-05-12T03:06:28.082Z,46.32
2017-05-12T03:07:08.685Z,46.15
2017-05-12T03:07:49.257Z,45.75
2017-05-12T03:08:29.846Z,45.27
2017-05-12T03:09:10.442Z,45.56
2017-05-12T03:09:51.015Z,45.17
2017-05-12T03:10:31.580Z,44.6
2017-05-12T03:11:12.146Z,44.51
2017-05-12T03:11:52.721Z,44.12
2017-05-12T03:12:33.316Z,43.74
2017-05-12T03:13:13.884Z,43.65
2017-05-12T03:13:54.468Z,43.46
2017-05-12T03:14:35.053Z,43.46
2017-05-12T03:15:15.665Z,43.36
2017-05-12T03:15:56.220Z,43.17
2017-05-12T03:16:36.800Z,42.97
2017-05-12T03:17:17.388Z,42.4
2017-05-12T03:17:57.947Z,42.5
2017-05-12T03:18:38.518Z,42.11
2017-05-12T03:19:19.087Z,41.74
2017-05-12T03:19:59.653Z,42.11
2017-05-12T03:20:40.258Z,41.26
2017-05-12T03:21:20.837Z,41.45
2017-05-12T03:22:01.439Z,41.06
2017-05-12T03:22:42.003Z,41.35
2017-05-12T03:23:22.577Z,41.26
2017-05-12T03:24:03.147Z,41.16
2017-05-12T03:24:43.717Z,40.88
2017-05-12T03:25:24.308Z,40.69
2017-05-12T03:26:04.886Z,40.4
2017-05-12T03:26:45.453Z,40.2
2017-05-12T03:27:26.026Z,40.01
2017-05-12T03:28:06.599Z,39.92
2017-05-12T03:28:47.192Z,40.01
2017-05-12T03:29:27.779Z,39.83
2017-05-12T03:30:08.363Z,39.54
2017-05-12T03:30:48.955Z,39.73
2017-05-12T03:31:29.550Z,39.35
2017-05-12T03:32:10.137Z,38.96
2017-05-12T03:32:50.713Z,39.15
2017-05-12T03:33:31.289Z,38.96
2017-05-12T03:34:11.858Z,39.06
2017-05-12T03:34:52.437Z,39.15
2017-05-12T03:35:33.103Z,38.78
2017-05-12T03:36:21.117Z,38.58
2017-05-12T03:37:22.883Z,38.58
2017-05-12T03:38:13.780Z,38.49
2017-05-12T03:38:54.365Z,37.92
2017-05-12T03:39:34.946Z,38.01
2017-05-12T03:40:15.539Z,37.92
2017-05-12T03:40:56.130Z,38.2
2017-05-12T03:41:36.705Z,37.73
2017-05-12T03:42:17.287Z,37.92
2017-05-12T03:42:57.859Z,37.53
2017-05-12T03:43:38.459Z,37.44
2017-05-12T03:44:19.040Z,37.24
2017-05-12T03:44:59.619Z,37.73
2017-05-12T03:45:40.190Z,37.34
2017-05-12T03:46:20.761Z,37.34
2017-05-12T03:47:01.346Z,37.53
2017-05-12T03:47:41.971Z,36.87
2017-05-12T03:48:22.495Z,37.15
2017-05-12T03:49:03.067Z,36.77
2017-05-12T03:49:43.667Z,36.58
2017-05-12T03:50:24.237Z,36.68
2017-05-12T03:51:04.938Z,36.68
2017-05-12T03:51:45.513Z,36.48
2017-05-12T03:52:26.101Z,36.48
2017-05-12T03:53:06.679Z,36.58
2017-05-12T03:53:47.248Z,36.48
2017-05-12T03:54:27.826Z,36.39
2017-05-12T03:55:08.404Z,36.48
2017-05-12T03:55:49.020Z,35.91
2017-05-12T03:56:29.549Z,36
2017-05-12T03:57:10.115Z,35.82
2017-05-12T03:57:50.712Z,35.53
2017-05-12T03:58:31.307Z,35.82
2017-05-12T03:59:12.012Z,35.91
2017-05-12T03:59:52.583Z,35.82
2017-05-12T04:00:33.162Z,35.62
2017-05-12T04:01:13.736Z,35.53
2017-05-12T04:01:54.315Z,35.53
2017-05-12T04:02:34.900Z,35.33
2017-05-12T04:03:15.469Z,35.24
2017-05-12T04:03:56.049Z,35.05
2017-05-12T04:04:36.634Z,35.24
2017-05-12T04:05:17.244Z,35.14
2017-05-12T04:05:57.835Z,34.95
2017-05-12T04:06:38.404Z,35.05
2017-05-12T04:07:18.983Z,34.77
2017-05-12T04:07:59.552Z,34.77
2017-05-12T04:08:40.124Z,34.77
2017-05-12T04:09:20.697Z,34.86
2017-05-12T04:10:01.273Z,34.86
2017-05-12T04:10:41.856Z,34.67
2017-05-12T04:11:22.428Z,34.86
2017-05-12T04:12:03.007Z,34.95
2017-05-12T04:12:43.576Z,34.57
2017-05-12T04:13:24.146Z,34.48
2017-05-12T04:14:04.725Z,34.57
2017-05-12T04:14:45.300Z,34.95
2017-05-12T04:15:25.928Z,34.09
2017-05-12T04:16:06.506Z,34.19
2017-05-12T04:16:47.082Z,34.19
2017-05-12T04:17:27.657Z,34.28
2017-05-12T04:18:08.223Z,33.91
2017-05-12T04:18:48.789Z,34
2017-05-12T04:19:29.362Z,34
2017-05-12T04:20:09.946Z,33.62
2017-05-12T04:20:50.517Z,33.33
2017-05-12T04:21:31.098Z,33.33
2017-05-12T04:22:11.670Z,33.42
2017-05-12T04:22:52.241Z,33.52
2017-05-12T04:23:32.817Z,33.42
2017-05-12T04:24:13.393Z,33.52
2017-05-12T04:24:54.002Z,33.23
2017-05-12T04:25:34.575Z,33.23
2017-05-12T04:26:15.165Z,33.14
2017-05-12T04:26:55.739Z,33.04
2017-05-12T04:27:36.309Z,32.86
2017-05-12T04:28:17.842Z,32.66
2017-05-12T04:28:58.432Z,32.86
2017-05-12T04:29:39.023Z,33.14
2017-05-12T04:30:19.613Z,32.76
2017-05-12T04:31:00.201Z,32.76
2017-05-12T04:31:40.782Z,32.47
2017-05-12T04:32:21.346Z,32.47
2017-05-12T04:33:01.915Z,32.09
2017-05-12T04:33:43.468Z,31.99
2017-05-12T04:34:23.863Z,32.28
2017-05-12T04:35:04.474Z,32.18
2017-05-12T04:35:45.077Z,32.18
2017-05-12T04:36:25.644Z,32.28
2017-05-12T04:37:06.285Z,32.28
2017-05-12T04:37:46.861Z,32.37
2017-05-12T04:38:27.432Z,32.47
2017-05-12T04:39:08.028Z,32.09
2017-05-12T04:39:48.608Z,31.99
2017-05-12T04:40:29.185Z,32.09
2017-05-12T04:41:09.770Z,31.8
2017-05-12T04:41:50.352Z,31.9
2017-05-12T04:42:32.055Z,31.9
2017-05-12T04:45:10.026Z,31.61
2017-05-12T04:45:50.622Z,31.51
2017-05-12T04:46:31.196Z,31.32
2017-05-12T04:47:11.767Z,31.71
2017-05-12T04:47:52.375Z,31.8
2017-05-12T04:48:33.003Z,31.42
2017-05-12T04:49:13.544Z,31.51
2017-05-12T04:49:54.118Z,31.61
2017-05-12T04:50:34.706Z,31.61
2017-05-12T04:51:15.287Z,31.51
2017-05-12T04:51:55.873Z,31.32
2017-05-12T04:52:36.494Z,31.42
2017-05-12T04:53:17.149Z,31.51
2017-05-12T04:53:57.798Z,31.23
2017-05-12T04:54:38.509Z,31.23
2017-05-12T04:55:19.885Z,31.23
2017-05-12T04:56:00.582Z,31.42
2017-05-12T04:56:41.215Z,31.23
2017-05-12T04:57:21.784Z,31.23
2017-05-12T04:58:02.354Z,31.32
2017-05-12T04:58:42.973Z,31.42
2017-05-12T04:59:23.743Z,31.42
2017-05-12T05:00:04.331Z,31.32
2017-05-12T05:00:44.940Z,31.32
2017-05-12T05:01:25.524Z,31.51
2017-05-12T05:02:06.083Z,30.94
2017-05-12T05:02:46.652Z,30.85
2017-05-12T05:03:27.236Z,31.04
2017-05-12T05:04:07.918Z,30.94
2017-05-12T05:04:48.496Z,31.32
2017-05-12T05:05:29.075Z,31.61
2017-05-12T05:06:09.656Z,31.51
2017-05-12T05:06:50.221Z,31.04
2017-05-12T05:07:30.788Z,31.13
2017-05-12T05:08:11.380Z,30.75
2017-05-12T05:08:51.960Z,30.94
2017-05-12T05:09:32.547Z,31.04
2017-05-12T05:10:13.124Z,31.04
2017-05-12T05:10:53.706Z,30.94
2017-05-12T05:11:34.378Z,30.94
2017-05-12T05:12:14.975Z,30.94
2017-05-12T05:12:55.547Z,30.75
2017-05-12T05:13:36.116Z,30.66
2017-05-12T05:14:16.691Z,30.85
2017-05-12T05:14:57.274Z,30.66
2017-05-12T05:15:37.851Z,30.46
2017-05-12T05:16:18.435Z,30.56
2017-05-12T05:17:00.091Z,30.46
2017-05-12T05:17:40.660Z,30.37
2017-05-12T05:18:21.224Z,30.27
2017-05-12T05:19:01.865Z,30.37
2017-05-12T05:19:42.430Z,30.18
2017-05-12T05:20:23.017Z,30.18
2017-05-12T05:21:03.598Z,29.7
2017-05-12T05:21:44.161Z,29.8
2017-05-12T05:22:24.739Z,29.89
2017-05-12T05:23:05.313Z,29.8
2017-05-12T05:23:45.904Z,29.99
2017-05-12T05:24:26.478Z,30.27
2017-05-12T05:25:07.055Z,30.27
2017-05-12T05:25:47.626Z,30.27
2017-05-12T05:26:28.317Z,30.27
2017-05-12T05:27:08.798Z,30.27
2017-05-12T05:27:49.370Z,30.27
2017-05-12T05:28:29.938Z,30.27
2017-05-12T05:29:10.499Z,30.08
2017-05-12T05:29:51.089Z,30.08
2017-05-12T05:30:31.671Z,29.99
2017-05-12T05:31:12.232Z,29.8
2017-05-12T05:31:52.822Z,30.08
2017-05-12T05:32:33.416Z,30.08
2017-05-12T05:33:13.986Z,29.22
2017-05-12T05:33:54.570Z,29.51
2017-05-12T05:34:35.155Z,29.51
2017-05-12T05:35:15.763Z,29.41
2017-05-12T05:35:56.331Z,29.51
2017-05-12T05:36:36.903Z,29.51
2017-05-12T05:37:17.473Z,29.51
2017-05-12T05:37:58.049Z,29.51
2017-05-12T05:38:38.628Z,29.51
2017-05-12T05:39:19.206Z,29.41
2017-05-12T05:39:59.792Z,29.51
2017-05-12T05:40:40.367Z,29.33
2017-05-12T05:41:20.943Z,29.22
2017-05-12T05:42:01.525Z,29.13
2017-05-12T05:42:42.108Z,29.13
2017-05-12T05:43:22.670Z,29.05
2017-05-12T05:44:03.240Z,29.14
2017-05-12T05:44:43.820Z,29.14
2017-05-12T05:45:24.387Z,29.05
2017-05-12T05:46:04.963Z,28.95
2017-05-12T05:46:45.531Z,28.86
2017-05-12T05:47:26.097Z,28.84
2017-05-12T05:48:06.675Z,29.05
2017-05-12T05:48:47.245Z,28.95
2017-05-12T05:49:27.827Z,28.86
2017-05-12T05:50:08.404Z,28.66
2017-05-12T05:50:48.982Z,28.66
2017-05-12T05:51:29.551Z,28.57
2017-05-12T05:52:10.124Z,28.95
2017-05-12T05:52:50.708Z,29.05
2017-05-12T05:53:31.292Z,29.14
2017-05-12T05:54:11.884Z,28.95
2017-05-12T05:54:52.664Z,28.76
2017-05-12T05:55:33.464Z,28.66
2017-05-12T05:56:14.052Z,28.57
2017-05-12T05:56:54.645Z,28.47
2017-05-12T05:57:35.247Z,28.57
2017-05-12T05:58:15.823Z,28.47
2017-05-12T05:58:56.399Z,28.57
2017-05-12T05:59:36.979Z,28.47
2017-05-12T06:00:17.559Z,28.28
2017-05-12T06:00:58.136Z,28.19
2017-05-12T06:01:38.717Z,28.19
2017-05-12T06:02:19.283Z,28.38
2017-05-12T06:02:59.865Z,28.19
2017-05-12T06:03:40.447Z,28.38
2017-05-12T06:04:21.032Z,28
2017-05-12T06:05:01.592Z,27.8
2017-05-12T06:05:42.175Z,27.61
2017-05-12T06:06:22.752Z,27.52
2017-05-12T06:07:03.330Z,27.23
2017-05-12T06:07:43.899Z,27.33
2017-05-12T06:08:24.477Z,27.61
2017-05-12T06:09:05.055Z,27.33
2017-05-12T06:09:45.636Z,26.95
2017-05-12T06:10:26.211Z,27.23
2017-05-12T06:11:06.787Z,26.95
2017-05-12T06:11:47.365Z,27.04
2017-05-12T06:12:27.935Z,27.33
2017-05-12T06:13:08.510Z,27.23
2017-05-12T06:13:49.086Z,27.04
2017-05-12T06:14:29.662Z,27.04
2017-05-12T06:15:10.230Z,27.14
2017-05-12T06:15:50.807Z,27.23
2017-05-12T06:16:31.367Z,27.23
2017-05-12T06:17:11.941Z,26.95
2017-05-12T06:17:52.522Z,26.85
2017-05-12T06:18:33.126Z,26.85
2017-05-12T06:19:13.711Z,26.95
2017-05-12T06:19:54.288Z,26.95
2017-05-12T06:20:34.863Z,26.85
2017-05-12T06:21:15.486Z,26.85
2017-05-12T06:21:56.070Z,26.95
2017-05-12T06:22:36.644Z,27.04
2017-05-12T06:23:17.219Z,26.86
2017-05-12T06:23:57.801Z,26.66
2017-05-12T06:24:38.382Z,26.46
2017-05-12T06:25:18.967Z,26.66
2017-05-12T06:25:59.549Z,26.67
2017-05-12T06:26:40.144Z,26.46
2017-05-12T06:27:20.748Z,26.18
2017-05-12T06:28:01.319Z,26.19
2017-05-12T06:28:41.886Z,25.9
2017-05-12T06:29:33.264Z,25.89
2017-05-12T06:30:13.851Z,26.09
2017-05-12T06:30:54.436Z,25.9
2017-05-12T06:31:35.043Z,25.9
2017-05-12T06:32:15.609Z,25.71
2017-05-12T06:32:56.189Z,25.52
2017-05-12T06:33:36.779Z,25.33
2017-05-12T06:34:17.351Z,25.52
2017-05-12T06:34:57.944Z,25.24
2017-05-12T06:35:38.525Z,25.33
2017-05-12T06:36:19.143Z,25.33
2017-05-12T06:36:59.720Z,25.14
2017-05-12T06:37:40.288Z,25.04
2017-05-12T06:38:20.880Z,25.04
2017-05-12T06:39:01.580Z,25.14
2017-05-12T06:39:42.170Z,24.76
2017-05-12T06:40:22.738Z,24.85
2017-05-12T06:41:03.317Z,24.76
2017-05-12T06:41:43.928Z,24.85
2017-05-12T06:42:24.513Z,24.76
2017-05-12T06:43:05.142Z,24.66
2017-05-12T06:43:45.710Z,24.76
2017-05-12T06:44:26.300Z,24.66
2017-05-12T06:45:06.862Z,24.66
2017-05-12T06:45:47.429Z,24.76
2017-05-12T06:46:28.050Z,24.66
2017-05-12T06:47:08.642Z,24.48
2017-05-12T06:47:49.289Z,24.48
2017-05-12T06:48:29.881Z,24.57
2017-05-12T06:49:10.492Z,24.57
2017-05-12T06:49:51.079Z,24.76
2017-05-12T06:50:31.645Z,24.76
2017-05-12T06:51:12.229Z,24.57
2017-05-12T06:51:52.797Z,24.66
2017-05-12T06:52:33.391Z,24.57
2017-05-12T06:53:13.976Z,24.66
2017-05-12T06:53:54.601Z,24.66
2017-05-12T06:54:35.241Z,24.76
2017-05-12T06:55:15.774Z,24.48
2017-05-12T06:55:56.346Z,24.76
2017-05-12T06:56:36.935Z,24.57
2017-05-12T06:57:17.532Z,24.57
2017-05-12T06:57:58.123Z,24.28
2017-05-12T06:58:38.698Z,23.9
2017-05-12T06:59:19.337Z,24.28
2017-05-12T06:59:59.938Z,24.19
2017-05-12T07:00:40.514Z,24.19
2017-05-12T07:01:21.111Z,23.99
2017-05-12T07:02:01.698Z,23.8
2017-05-12T07:02:42.282Z,23.82
2017-05-12T07:03:22.937Z,23.61
2017-05-12T07:04:03.545Z,23.33
2017-05-12T07:04:44.147Z,23.33
2017-05-12T07:05:24.753Z,23.62
2017-05-12T07:06:05.339Z,23.33
2017-05-12T07:06:45.932Z,23.71
2017-05-12T07:07:26.537Z,23.53
2017-05-12T07:08:07.177Z,23.62
2017-05-12T07:08:47.780Z,23.53
2017-05-12T07:09:28.393Z,23.14
2017-05-12T07:10:09.015Z,23.24
2017-05-12T07:10:49.618Z,23.33
2017-05-12T07:11:30.204Z,23.33
2017-05-12T07:12:10.808Z,23.24
2017-05-12T07:12:51.403Z,23.14
2017-05-12T07:13:32.026Z,23.05
2017-05-12T07:14:12.626Z,23.24
2017-05-12T07:14:53.235Z,23.05
2017-05-12T07:15:33.841Z,23.05
2017-05-12T07:16:14.440Z,22.47
2017-05-12T07:16:55.074Z,22.67
2017-05-12T07:17:35.656Z,22.19
2017-05-12T07:18:16.247Z,22.28
2017-05-12T07:18:56.856Z,22.28
2017-05-12T07:19:37.485Z,22.3
2017-05-12T07:20:18.089Z,22.11
2017-05-12T07:20:58.718Z,21.81
2017-05-12T07:21:39.292Z,21.91
2017-05-12T07:22:19.870Z,21.81
2017-05-12T07:23:00.439Z,21.81
2017-05-12T07:23:41.014Z,20.76
2017-05-12T07:24:21.605Z,20.29
2017-05-12T07:25:02.172Z,20.48
2017-05-12T07:25:42.735Z,20.67
2017-05-12T07:26:23.364Z,20.67
2017-05-12T07:27:03.937Z,20.86
2017-05-12T07:27:44.526Z,20.95
2017-05-12T07:28:25.110Z,20.86
2017-05-12T07:29:05.688Z,20.29
2017-05-12T07:29:46.249Z,20.19
2017-05-12T07:30:26.811Z,20.67
2017-05-12T07:31:07.380Z,20.29
2017-05-12T07:31:47.953Z,20.19
2017-05-12T07:32:28.531Z,20.19
2017-05-12T07:33:09.108Z,20.38
2017-05-12T07:33:49.688Z,20.19
2017-05-12T07:34:30.274Z,19.9
2017-05-12T07:35:10.838Z,19.81
2017-05-12T07:35:51.407Z,19.71
2017-05-12T07:36:31.985Z,19.52
2017-05-12T07:37:12.595Z,19.52
2017-05-12T07:37:53.164Z,19.13
2017-05-12T07:38:33.760Z,18.76
2017-05-12T07:39:14.337Z,18.95
2017-05-12T07:39:54.921Z,18.76
2017-05-12T07:40:35.503Z,18.76
2017-05-12T07:41:16.092Z,18.67
2017-05-12T07:41:56.727Z,18.76
2017-05-12T07:42:37.261Z,18.57
2017-05-12T07:43:17.846Z,18.29
2017-05-12T07:43:58.432Z,18.09
2017-05-12T07:44:39.014Z,17.8
2017-05-12T07:45:19.644Z,17.8
2017-05-12T07:46:00.217Z,17.61
2017-05-12T07:46:40.810Z,17.71
2017-05-12T07:47:21.399Z,17.61
2017-05-12T07:48:01.975Z,17.61
2017-05-12T07:48:42.563Z,17.52
2017-05-12T07:49:23.147Z,18
2017-05-12T07:50:03.728Z,17.71
2017-05-12T07:50:44.316Z,17.52
2017-05-12T07:51:24.912Z,17.43
2017-05-12T07:52:05.555Z,17.52
2017-05-12T07:52:46.128Z,17.52
2017-05-12T07:53:26.718Z,17.14
2017-05-12T07:54:07.286Z,17.43
2017-05-12T07:54:47.870Z,17.54
2017-05-12T07:55:28.446Z,17.82
2017-05-12T07:56:09.029Z,18.88
2017-05-12T07:56:49.619Z,19.17
2017-05-12T07:57:30.201Z,19.56
2017-05-12T07:58:10.792Z,20.9
2017-05-12T07:58:51.366Z,21
2017-05-12T07:59:31.983Z,20.61
2017-05-12T08:00:12.561Z,19.85
2017-05-12T08:00:53.215Z,19.75
2017-05-12T08:01:33.779Z,19.08
2017-05-12T08:02:14.380Z,18.79
2017-05-12T08:02:54.959Z,18.79
2017-05-12T08:03:35.543Z,19.75
2017-05-12T08:04:16.133Z,20.14
2017-05-12T08:04:56.714Z,21.08
2017-05-12T08:05:37.295Z,20.7
2017-05-12T08:06:17.876Z,20.03
2017-05-12T08:06:58.515Z,20.79
2017-05-12T08:07:39.095Z,21.47
2017-05-12T08:08:19.697Z,21.08
2017-05-12T08:09:00.327Z,20.7
2017-05-12T08:09:40.901Z,21.28
2017-05-12T08:10:21.490Z,22.04
2017-05-12T08:11:02.066Z,22.41
2017-05-12T08:11:42.656Z,22.32
2017-05-12T08:12:23.294Z,22.61
2017-05-12T08:13:03.871Z,22.61
2017-05-12T08:13:44.557Z,22.41
2017-05-12T08:14:25.136Z,22.61
2017-05-12T08:15:05.724Z,22.99
2017-05-12T08:15:46.316Z,22.8
2017-05-12T08:16:26.897Z,22.99
2017-05-12T08:17:07.487Z,22.99
2017-05-12T08:17:48.066Z,23.47
2017-05-12T08:18:28.664Z,23.27
2017-05-12T08:19:09.226Z,23.37
2017-05-12T08:19:49.852Z,23.27
2017-05-12T08:20:30.414Z,24.23
2017-05-12T08:21:11.057Z,24.9
2017-05-12T08:21:51.717Z,25
2017-05-12T08:22:32.291Z,24.71
2017-05-12T08:23:12.915Z,27.49
2017-05-12T08:23:53.506Z,28.16
2017-05-12T08:24:34.105Z,27.87
2017-05-12T08:25:14.702Z,27.3
2017-05-12T08:25:55.353Z,27.3
2017-05-12T08:26:35.965Z,26.93
2017-05-12T08:27:16.583Z,27.12
2017-05-12T08:27:57.174Z,27.6
2017-05-12T08:28:37.763Z,27.68
2017-05-12T08:29:18.395Z,28.45
2017-05-12T08:29:58.979Z,29.04
2017-05-12T08:30:39.629Z,28.75
2017-05-12T08:31:20.183Z,29.33
2017-05-12T08:32:00.800Z,30
2017-05-12T08:32:41.390Z,30.09
2017-05-12T08:33:22.027Z,30.47
2017-05-12T08:34:02.606Z,30.19
2017-05-12T08:34:43.261Z,31.63
2017-05-12T08:35:23.859Z,31.53
2017-05-12T08:36:04.483Z,32.1
2017-05-12T08:36:45.100Z,34.31
2017-05-12T08:37:25.709Z,35.08
2017-05-12T08:38:06.337Z,34.88
2017-05-12T08:38:46.948Z,35.17
2017-05-12T08:39:27.512Z,35.17
2017-05-12T08:40:08.149Z,35.84
2017-05-12T08:40:48.720Z,37.85
2017-05-12T08:41:29.316Z,37.85
2017-05-12T08:42:09.919Z,37.85
2017-05-12T08:42:50.573Z,38.34
2017-05-12T08:43:31.126Z,39.87
2017-05-12T08:44:11.735Z,40.06
2017-05-12T08:44:52.326Z,41.04
2017-05-12T08:45:33.007Z,41.33
2017-05-12T08:46:13.592Z,42.57
2017-05-12T08:46:54.195Z,43.73
2017-05-12T08:47:34.797Z,45.57